sensor_id;sensor_type;location;lat;lon;timestamp;P1;durP1;ratioP1;P2;durP2;ratioP2
68168;SDS011;54981;50.206;15.978;2023-03-01T00:01:25;50.58;;;37.63;;
68168;SDS011;54981;50.206;15.978;2023-03-01T00:03:58;39.85;;;32.55;;
68168;SDS011;54981;50.206;15.978;2023-03-01T00:06:29;51.35;;;35.88;;
68168;SDS011;54981;50.206;15.978;2023-03-01T00:08:59;50.45;;;36.65;;
68168;SDS011;54981;50.206;15.978;2023-03-01T00:11:30;56.05;;;35.92;;
68168;SDS011;54981;50.206;15.978;2023-03-01T00:14:01;44.83;;;36.10;;
68168;SDS011;54981;50.206;15.978;2023-03-01T00:16:38;46.05;;;35.72;;
68168;SDS011;54981;50.206;15.978;2023-03-01T00:19:14;47.80;;;34.28;;
68168;SDS011;54981;50.206;15.978;2023-03-01T00:21:46;45.83;;;34.65;;
68168;SDS011;54981;50.206;15.978;2023-03-01T00:24:17;47.47;;;35.45;;
68168;SDS011;54981;50.206;15.978;2023-03-01T00:26:48;49.60;;;35.60;;
68168;SDS011;54981;50.206;15.978;2023-03-01T00:29:18;47.00;;;38.35;;
68168;SDS011;54981;50.206;15.978;2023-03-01T00:31:48;56.00;;;38.25;;
68168;SDS011;54981;50.206;15.978;2023-03-01T00:34:19;47.75;;;33.97;;
68168;SDS011;54981;50.206;15.978;2023-03-01T00:36:49;51.08;;;36.72;;
68168;SDS011;54981;50.206;15.978;2023-03-01T00:39:20;45.42;;;38.17;;
68168;SDS011;54981;50.206;15.978;2023-03-01T00:41:50;46.13;;;35.60;;
68168;SDS011;54981;50.206;15.978;2023-03-01T00:44:20;41.47;;;35.15;;
68168;SDS011;54981;50.206;15.978;2023-03-01T00:46:51;48.60;;;37.42;;
68168;SDS011;54981;50.206;15.978;2023-03-01T00:49:21;50.72;;;35.92;;
68168;SDS011;54981;50.206;15.978;2023-03-01T00:51:54;50.90;;;36.45;;
68168;SDS011;54981;50.206;15.978;2023-03-01T00:54:24;44.78;;;37.05;;
68168;SDS011;54981;50.206;15.978;2023-03-01T00:56:54;44.15;;;34.75;;
68168;SDS011;54981;50.206;15.978;2023-03-01T00:59:25;48.20;;;36.35;;
68168;SDS011;54981;50.206;15.978;2023-03-01T01:01:55;46.70;;;36.67;;
68168;SDS011;54981;50.206;15.978;2023-03-01T01:04:25;49.20;;;35.83;;
68168;SDS011;54981;50.206;15.978;2023-03-01T01:06:56;53.20;;;38.83;;
68168;SDS011;54981;50.206;15.978;2023-03-01T01:09:26;47.45;;;37.55;;
68168;SDS011;54981;50.206;15.978;2023-03-01T01:11:57;55.55;;;42.17;;
68168;SDS011;54981;50.206;15.978;2023-03-01T01:14:27;53.10;;;38.22;;
68168;SDS011;54981;50.206;15.978;2023-03-01T01:16:57;58.75;;;37.80;;
68168;SDS011;54981;50.206;15.978;2023-03-01T01:19:28;56.83;;;39.78;;
68168;SDS011;54981;50.206;15.978;2023-03-01T01:21:59;63.20;;;42.80;;
68168;SDS011;54981;50.206;15.978;2023-03-01T01:24:29;58.65;;;39.15;;
68168;SDS011;54981;50.206;15.978;2023-03-01T01:26:59;62.25;;;42.00;;
68168;SDS011;54981;50.206;15.978;2023-03-01T01:29:30;53.08;;;34.85;;
68168;SDS011;54981;50.206;15.978;2023-03-01T01:32:01;51.42;;;37.72;;
68168;SDS011;54981;50.206;15.978;2023-03-01T01:34:31;63.65;;;42.50;;
68168;SDS011;54981;50.206;15.978;2023-03-01T01:37:02;52.00;;;41.60;;
68168;SDS011;54981;50.206;15.978;2023-03-01T01:39:33;59.50;;;39.88;;
68168;SDS011;54981;50.206;15.978;2023-03-01T01:42:04;57.90;;;40.25;;
68168;SDS011;54981;50.206;15.978;2023-03-01T01:44:34;61.42;;;43.72;;
68168;SDS011;54981;50.206;15.978;2023-03-01T01:47:06;64.32;;;44.20;;
68168;SDS011;54981;50.206;15.978;2023-03-01T01:49:49;60.47;;;42.47;;
68168;SDS011;54981;50.206;15.978;2023-03-01T01:52:24;59.38;;;40.47;;
68168;SDS011;54981;50.206;15.978;2023-03-01T01:57:39;49.80;;;35.85;;
68168;SDS011;54981;50.206;15.978;2023-03-01T02:00:23;50.67;;;38.15;;
68168;SDS011;54981;50.206;15.978;2023-03-01T02:03:03;60.58;;;40.80;;
68168;SDS011;54981;50.206;15.978;2023-03-01T02:05:46;60.35;;;40.85;;
68168;SDS011;54981;50.206;15.978;2023-03-01T02:08:23;60.22;;;40.55;;
68168;SDS011;54981;50.206;15.978;2023-03-01T02:10:57;52.88;;;38.30;;
68168;SDS011;54981;50.206;15.978;2023-03-01T02:13:33;52.40;;;41.05;;
68168;SDS011;54981;50.206;15.978;2023-03-01T02:16:13;49.40;;;35.72;;
68168;SDS011;54981;50.206;15.978;2023-03-01T02:18:45;57.33;;;42.58;;
68168;SDS011;54981;50.206;15.978;2023-03-01T02:24:15;53.63;;;39.22;;
68168;SDS011;54981;50.206;15.978;2023-03-01T02:26:57;49.90;;;38.10;;
68168;SDS011;54981;50.206;15.978;2023-03-01T02:29:28;57.20;;;40.35;;
68168;SDS011;54981;50.206;15.978;2023-03-01T02:31:59;54.72;;;40.70;;
68168;SDS011;54981;50.206;15.978;2023-03-01T02:34:32;54.63;;;37.65;;
68168;SDS011;54981;50.206;15.978;2023-03-01T02:37:04;57.10;;;39.55;;
68168;SDS011;54981;50.206;15.978;2023-03-01T02:39:46;54.50;;;39.38;;
68168;SDS011;54981;50.206;15.978;2023-03-01T02:42:21;49.97;;;37.85;;
68168;SDS011;54981;50.206;15.978;2023-03-01T02:44:56;53.40;;;39.97;;
68168;SDS011;54981;50.206;15.978;2023-03-01T02:47:27;54.10;;;39.90;;
68168;SDS011;54981;50.206;15.978;2023-03-01T02:49:57;49.42;;;38.10;;
68168;SDS011;54981;50.206;15.978;2023-03-01T02:52:30;51.00;;;37.95;;
68168;SDS011;54981;50.206;15.978;2023-03-01T02:55:14;44.20;;;35.90;;
68168;SDS011;54981;50.206;15.978;2023-03-01T02:57:46;51.22;;;40.75;;
68168;SDS011;54981;50.206;15.978;2023-03-01T03:00:22;49.63;;;38.20;;
68168;SDS011;54981;50.206;15.978;2023-03-01T03:02:56;55.25;;;41.28;;
68168;SDS011;54981;50.206;15.978;2023-03-01T03:05:29;52.33;;;36.90;;
68168;SDS011;54981;50.206;15.978;2023-03-01T03:08:01;59.00;;;42.33;;
68168;SDS011;54981;50.206;15.978;2023-03-01T03:10:34;46.63;;;38.85;;
68168;SDS011;54981;50.206;15.978;2023-03-01T03:13:09;58.28;;;39.15;;
68168;SDS011;54981;50.206;15.978;2023-03-01T03:15:41;56.47;;;40.30;;
68168;SDS011;54981;50.206;15.978;2023-03-01T03:18:13;50.15;;;38.30;;
68168;SDS011;54981;50.206;15.978;2023-03-01T03:20:45;51.53;;;38.95;;
68168;SDS011;54981;50.206;15.978;2023-03-01T03:23:16;52.70;;;38.65;;
68168;SDS011;54981;50.206;15.978;2023-03-01T03:25:47;47.25;;;35.67;;
68168;SDS011;54981;50.206;15.978;2023-03-01T03:28:19;50.22;;;36.67;;
68168;SDS011;54981;50.206;15.978;2023-03-01T03:30:50;47.85;;;38.60;;
68168;SDS011;54981;50.206;15.978;2023-03-01T03:33:21;53.83;;;37.17;;
68168;SDS011;54981;50.206;15.978;2023-03-01T03:35:51;45.90;;;37.33;;
68168;SDS011;54981;50.206;15.978;2023-03-01T03:38:21;54.65;;;37.60;;
68168;SDS011;54981;50.206;15.978;2023-03-01T03:40:58;53.00;;;36.33;;
68168;SDS011;54981;50.206;15.978;2023-03-01T03:43:34;48.10;;;34.90;;
68168;SDS011;54981;50.206;15.978;2023-03-01T03:46:06;53.20;;;35.78;;
68168;SDS011;54981;50.206;15.978;2023-03-01T03:48:41;46.03;;;34.95;;
68168;SDS011;54981;50.206;15.978;2023-03-01T03:51:14;55.25;;;36.08;;
68168;SDS011;54981;50.206;15.978;2023-03-01T03:53:46;47.85;;;34.53;;
68168;SDS011;54981;50.206;15.978;2023-03-01T03:56:16;45.35;;;34.17;;
68168;SDS011;54981;50.206;15.978;2023-03-01T03:58:47;43.65;;;34.53;;
68168;SDS011;54981;50.206;15.978;2023-03-01T04:01:17;47.58;;;35.20;;
68168;SDS011;54981;50.206;15.978;2023-03-01T04:03:48;47.15;;;35.75;;
68168;SDS011;54981;50.206;15.978;2023-03-01T04:06:18;42.33;;;35.30;;
68168;SDS011;54981;50.206;15.978;2023-03-01T04:08:48;41.58;;;33.60;;
68168;SDS011;54981;50.206;15.978;2023-03-01T04:11:20;48.38;;;37.00;;
68168;SDS011;54981;50.206;15.978;2023-03-01T04:13:57;46.53;;;35.25;;
68168;SDS011;54981;50.206;15.978;2023-03-01T04:16:28;50.63;;;36.17;;
68168;SDS011;54981;50.206;15.978;2023-03-01T04:18:59;42.03;;;36.08;;
68168;SDS011;54981;50.206;15.978;2023-03-01T04:21:30;46.28;;;36.42;;
68168;SDS011;54981;50.206;15.978;2023-03-01T04:24:00;52.33;;;35.72;;
68168;SDS011;54981;50.206;15.978;2023-03-01T04:26:33;47.67;;;33.70;;
68168;SDS011;54981;50.206;15.978;2023-03-01T04:29:03;46.00;;;32.30;;
68168;SDS011;54981;50.206;15.978;2023-03-01T04:31:34;42.78;;;34.35;;
68168;SDS011;54981;50.206;15.978;2023-03-01T04:34:04;40.65;;;34.22;;
68168;SDS011;54981;50.206;15.978;2023-03-01T04:36:35;45.03;;;31.08;;
68168;SDS011;54981;50.206;15.978;2023-03-01T04:39:05;51.22;;;37.45;;
68168;SDS011;54981;50.206;15.978;2023-03-01T04:41:42;48.30;;;37.85;;
68168;SDS011;54981;50.206;15.978;2023-03-01T04:44:15;50.80;;;39.53;;
68168;SDS011;54981;50.206;15.978;2023-03-01T04:46:45;58.90;;;38.38;;
68168;SDS011;54981;50.206;15.978;2023-03-01T04:49:19;48.28;;;37.00;;
68168;SDS011;54981;50.206;15.978;2023-03-01T04:51:49;51.30;;;41.38;;
68168;SDS011;54981;50.206;15.978;2023-03-01T04:54:19;52.72;;;41.97;;
68168;SDS011;54981;50.206;15.978;2023-03-01T04:56:50;55.72;;;41.70;;
68168;SDS011;54981;50.206;15.978;2023-03-01T04:59:20;50.53;;;38.17;;
68168;SDS011;54981;50.206;15.978;2023-03-01T05:01:52;49.88;;;36.45;;
68168;SDS011;54981;50.206;15.978;2023-03-01T05:04:27;46.85;;;39.83;;
68168;SDS011;54981;50.206;15.978;2023-03-01T05:06:58;48.70;;;41.03;;
68168;SDS011;54981;50.206;15.978;2023-03-01T05:09:28;53.15;;;40.03;;
68168;SDS011;54981;50.206;15.978;2023-03-01T05:11:59;46.90;;;38.38;;
68168;SDS011;54981;50.206;15.978;2023-03-01T05:14:29;49.75;;;35.88;;
68168;SDS011;54981;50.206;15.978;2023-03-01T05:16:59;46.10;;;36.83;;
68168;SDS011;54981;50.206;15.978;2023-03-01T05:19:33;53.97;;;38.75;;
68168;SDS011;54981;50.206;15.978;2023-03-01T05:22:04;52.70;;;38.80;;
68168;SDS011;54981;50.206;15.978;2023-03-01T05:24:35;47.22;;;37.10;;
68168;SDS011;54981;50.206;15.978;2023-03-01T05:27:05;47.78;;;37.50;;
68168;SDS011;54981;50.206;15.978;2023-03-01T05:29:36;53.30;;;38.17;;
68168;SDS011;54981;50.206;15.978;2023-03-01T05:32:06;36.25;;;32.42;;
68168;SDS011;54981;50.206;15.978;2023-03-01T05:34:38;50.45;;;36.50;;
68168;SDS011;54981;50.206;15.978;2023-03-01T05:37:09;50.67;;;37.72;;
68168;SDS011;54981;50.206;15.978;2023-03-01T05:39:39;49.45;;;38.95;;
68168;SDS011;54981;50.206;15.978;2023-03-01T05:42:11;54.60;;;43.10;;
68168;SDS011;54981;50.206;15.978;2023-03-01T05:44:42;52.85;;;39.13;;
68168;SDS011;54981;50.206;15.978;2023-03-01T05:47:12;42.72;;;37.78;;
68168;SDS011;54981;50.206;15.978;2023-03-01T05:49:42;47.83;;;35.10;;
68168;SDS011;54981;50.206;15.978;2023-03-01T05:52:13;47.67;;;36.15;;
68168;SDS011;54981;50.206;15.978;2023-03-01T05:54:43;45.22;;;37.45;;
68168;SDS011;54981;50.206;15.978;2023-03-01T05:57:13;49.40;;;36.70;;
68168;SDS011;54981;50.206;15.978;2023-03-01T05:59:45;50.97;;;39.10;;
68168;SDS011;54981;50.206;15.978;2023-03-01T06:02:15;47.53;;;36.40;;
68168;SDS011;54981;50.206;15.978;2023-03-01T06:04:46;48.10;;;36.00;;
68168;SDS011;54981;50.206;15.978;2023-03-01T06:07:16;47.17;;;38.55;;
68168;SDS011;54981;50.206;15.978;2023-03-01T06:09:46;47.30;;;38.65;;
68168;SDS011;54981;50.206;15.978;2023-03-01T06:12:17;48.72;;;37.80;;
68168;SDS011;54981;50.206;15.978;2023-03-01T06:14:47;51.45;;;37.72;;
68168;SDS011;54981;50.206;15.978;2023-03-01T06:17:18;48.65;;;35.00;;
68168;SDS011;54981;50.206;15.978;2023-03-01T06:19:48;54.10;;;37.00;;
68168;SDS011;54981;50.206;15.978;2023-03-01T06:22:18;56.72;;;41.45;;
68168;SDS011;54981;50.206;15.978;2023-03-01T06:24:49;82.07;;;55.22;;
68168;SDS011;54981;50.206;15.978;2023-03-01T06:27:19;72.88;;;48.45;;
68168;SDS011;54981;50.206;15.978;2023-03-01T06:29:50;67.13;;;47.38;;
68168;SDS011;54981;50.206;15.978;2023-03-01T06:32:20;71.68;;;49.83;;
68168;SDS011;54981;50.206;15.978;2023-03-01T06:34:51;60.15;;;42.88;;
68168;SDS011;54981;50.206;15.978;2023-03-01T06:37:21;65.25;;;44.67;;
68168;SDS011;54981;50.206;15.978;2023-03-01T06:39:51;63.38;;;45.30;;
68168;SDS011;54981;50.206;15.978;2023-03-01T06:42:22;70.65;;;47.75;;
68168;SDS011;54981;50.206;15.978;2023-03-01T06:44:52;72.35;;;46.33;;
68168;SDS011;54981;50.206;15.978;2023-03-01T06:47:23;65.43;;;44.13;;
68168;SDS011;54981;50.206;15.978;2023-03-01T06:49:53;63.15;;;40.38;;
68168;SDS011;54981;50.206;15.978;2023-03-01T06:52:23;57.72;;;39.83;;
68168;SDS011;54981;50.206;15.978;2023-03-01T06:54:54;60.53;;;39.80;;
68168;SDS011;54981;50.206;15.978;2023-03-01T06:57:24;56.92;;;40.30;;
68168;SDS011;54981;50.206;15.978;2023-03-01T06:59:55;63.42;;;41.92;;
68168;SDS011;54981;50.206;15.978;2023-03-01T07:02:25;67.43;;;43.65;;
68168;SDS011;54981;50.206;15.978;2023-03-01T07:04:55;68.82;;;46.30;;
68168;SDS011;54981;50.206;15.978;2023-03-01T07:07:26;67.72;;;45.38;;
68168;SDS011;54981;50.206;15.978;2023-03-01T07:09:56;64.25;;;43.63;;
68168;SDS011;54981;50.206;15.978;2023-03-01T07:12:26;61.35;;;44.58;;
68168;SDS011;54981;50.206;15.978;2023-03-01T07:14:57;74.03;;;43.88;;
68168;SDS011;54981;50.206;15.978;2023-03-01T07:17:27;57.38;;;40.00;;
68168;SDS011;54981;50.206;15.978;2023-03-01T07:19:57;63.15;;;43.92;;
68168;SDS011;54981;50.206;15.978;2023-03-01T07:22:28;61.72;;;44.15;;
68168;SDS011;54981;50.206;15.978;2023-03-01T07:24:58;70.38;;;45.95;;
68168;SDS011;54981;50.206;15.978;2023-03-01T07:27:29;66.18;;;46.38;;
68168;SDS011;54981;50.206;15.978;2023-03-01T07:29:59;75.47;;;48.95;;
68168;SDS011;54981;50.206;15.978;2023-03-01T07:32:29;69.03;;;45.28;;
68168;SDS011;54981;50.206;15.978;2023-03-01T07:35:00;59.13;;;43.40;;
68168;SDS011;54981;50.206;15.978;2023-03-01T07:37:30;62.70;;;43.25;;
68168;SDS011;54981;50.206;15.978;2023-03-01T07:40:01;75.97;;;47.55;;
68168;SDS011;54981;50.206;15.978;2023-03-01T07:42:33;56.47;;;41.65;;
68168;SDS011;54981;50.206;15.978;2023-03-01T07:45:04;64.93;;;43.78;;
68168;SDS011;54981;50.206;15.978;2023-03-01T07:47:35;56.70;;;40.63;;
68168;SDS011;54981;50.206;15.978;2023-03-01T07:50:05;57.53;;;41.60;;
68168;SDS011;54981;50.206;15.978;2023-03-01T07:52:36;67.93;;;45.50;;
68168;SDS011;54981;50.206;15.978;2023-03-01T07:55:07;68.90;;;44.80;;
68168;SDS011;54981;50.206;15.978;2023-03-01T07:57:37;62.22;;;42.35;;
68168;SDS011;54981;50.206;15.978;2023-03-01T08:00:09;62.40;;;45.08;;
68168;SDS011;54981;50.206;15.978;2023-03-01T08:02:41;67.40;;;45.00;;
68168;SDS011;54981;50.206;15.978;2023-03-01T08:05:11;69.25;;;44.28;;
68168;SDS011;54981;50.206;15.978;2023-03-01T08:07:42;61.75;;;43.67;;
68168;SDS011;54981;50.206;15.978;2023-03-01T08:10:12;74.35;;;50.00;;
68168;SDS011;54981;50.206;15.978;2023-03-01T08:12:43;65.15;;;42.97;;
68168;SDS011;54981;50.206;15.978;2023-03-01T08:15:13;68.65;;;47.70;;
68168;SDS011;54981;50.206;15.978;2023-03-01T08:17:43;70.18;;;48.40;;
68168;SDS011;54981;50.206;15.978;2023-03-01T08:20:14;71.18;;;47.92;;
68168;SDS011;54981;50.206;15.978;2023-03-01T08:22:44;71.85;;;49.47;;
68168;SDS011;54981;50.206;15.978;2023-03-01T08:25:15;84.47;;;54.22;;
68168;SDS011;54981;50.206;15.978;2023-03-01T08:27:45;79.15;;;54.33;;
68168;SDS011;54981;50.206;15.978;2023-03-01T08:30:15;68.70;;;43.33;;
68168;SDS011;54981;50.206;15.978;2023-03-01T08:32:46;71.95;;;48.30;;
68168;SDS011;54981;50.206;15.978;2023-03-01T08:35:17;66.55;;;42.67;;
68168;SDS011;54981;50.206;15.978;2023-03-01T08:37:47;66.72;;;44.80;;
68168;SDS011;54981;50.206;15.978;2023-03-01T08:40:18;62.95;;;41.78;;
68168;SDS011;54981;50.206;15.978;2023-03-01T08:42:48;60.13;;;40.65;;
68168;SDS011;54981;50.206;15.978;2023-03-01T08:45:19;57.30;;;42.78;;
68168;SDS011;54981;50.206;15.978;2023-03-01T08:47:51;55.30;;;41.25;;
68168;SDS011;54981;50.206;15.978;2023-03-01T08:50:23;65.32;;;42.75;;
68168;SDS011;54981;50.206;15.978;2023-03-01T08:52:54;53.65;;;37.25;;
68168;SDS011;54981;50.206;15.978;2023-03-01T08:55:24;62.45;;;39.67;;
68168;SDS011;54981;50.206;15.978;2023-03-01T08:57:55;62.03;;;40.75;;
68168;SDS011;54981;50.206;15.978;2023-03-01T09:00:25;58.35;;;38.40;;
68168;SDS011;54981;50.206;15.978;2023-03-01T09:02:56;59.00;;;39.97;;
68168;SDS011;54981;50.206;15.978;2023-03-01T09:05:26;51.53;;;38.15;;
68168;SDS011;54981;50.206;15.978;2023-03-01T09:07:57;57.42;;;39.25;;
68168;SDS011;54981;50.206;15.978;2023-03-01T09:10:27;51.28;;;38.28;;
68168;SDS011;54981;50.206;15.978;2023-03-01T09:12:57;57.38;;;42.22;;
68168;SDS011;54981;50.206;15.978;2023-03-01T09:15:28;52.30;;;39.97;;
68168;SDS011;54981;50.206;15.978;2023-03-01T09:17:58;49.42;;;38.30;;
68168;SDS011;54981;50.206;15.978;2023-03-01T09:20:30;51.25;;;37.78;;
68168;SDS011;54981;50.206;15.978;2023-03-01T09:23:01;40.78;;;32.65;;
68168;SDS011;54981;50.206;15.978;2023-03-01T09:25:31;43.38;;;32.45;;
68168;SDS011;54981;50.206;15.978;2023-03-01T09:28:04;42.10;;;33.67;;
68168;SDS011;54981;50.206;15.978;2023-03-01T09:30:34;38.42;;;33.10;;
68168;SDS011;54981;50.206;15.978;2023-03-01T09:33:05;40.22;;;32.13;;
68168;SDS011;54981;50.206;15.978;2023-03-01T09:35:35;40.67;;;30.60;;
68168;SDS011;54981;50.206;15.978;2023-03-01T09:38:05;35.70;;;30.10;;
68168;SDS011;54981;50.206;15.978;2023-03-01T09:40:36;39.80;;;28.88;;
68168;SDS011;54981;50.206;15.978;2023-03-01T09:43:07;35.70;;;28.95;;
68168;SDS011;54981;50.206;15.978;2023-03-01T09:46:14;36.53;;;29.05;;
68168;SDS011;54981;50.206;15.978;2023-03-01T09:49:09;37.38;;;28.50;;
68168;SDS011;54981;50.206;15.978;2023-03-01T09:51:47;33.25;;;27.42;;
68168;SDS011;54981;50.206;15.978;2023-03-01T09:54:25;34.53;;;28.40;;
68168;SDS011;54981;50.206;15.978;2023-03-01T09:57:01;35.42;;;29.13;;
68168;SDS011;54981;50.206;15.978;2023-03-01T10:02:35;36.28;;;26.60;;
68168;SDS011;54981;50.206;15.978;2023-03-01T10:19:23;35.03;;;26.58;;
68168;SDS011;54981;50.206;15.978;2023-03-01T10:22:00;32.35;;;25.60;;
68168;SDS011;54981;50.206;15.978;2023-03-01T10:24:37;29.83;;;23.65;;
68168;SDS011;54981;50.206;15.978;2023-03-01T10:27:19;29.85;;;24.55;;
68168;SDS011;54981;50.206;15.978;2023-03-01T10:32:36;28.88;;;23.63;;
68168;SDS011;54981;50.206;15.978;2023-03-01T10:35:19;29.08;;;26.10;;
68168;SDS011;54981;50.206;15.978;2023-03-01T10:37:58;28.58;;;25.45;;
68168;SDS011;54981;50.206;15.978;2023-03-01T10:40:37;28.88;;;25.73;;
68168;SDS011;54981;50.206;15.978;2023-03-01T10:43:43;32.50;;;29.50;;
68168;SDS011;54981;50.206;15.978;2023-03-01T10:46:32;27.30;;;21.67;;
68168;SDS011;54981;50.206;15.978;2023-03-01T10:49:07;28.83;;;22.95;;
68168;SDS011;54981;50.206;15.978;2023-03-01T10:51:40;31.90;;;25.88;;
68168;SDS011;54981;50.206;15.978;2023-03-01T10:54:20;31.15;;;25.40;;
68168;SDS011;54981;50.206;15.978;2023-03-01T10:56:59;34.53;;;31.20;;
68168;SDS011;54981;50.206;15.978;2023-03-01T10:59:32;29.40;;;25.42;;
68168;SDS011;54981;50.206;15.978;2023-03-01T11:02:20;31.55;;;24.45;;
68168;SDS011;54981;50.206;15.978;2023-03-01T11:05:13;28.70;;;23.08;;
68168;SDS011;54981;50.206;15.978;2023-03-01T11:07:58;28.77;;;23.73;;
68168;SDS011;54981;50.206;15.978;2023-03-01T11:10:31;26.65;;;23.83;;
68168;SDS011;54981;50.206;15.978;2023-03-01T11:13:16;26.73;;;22.57;;
68168;SDS011;54981;50.206;15.978;2023-03-01T11:16:07;28.00;;;23.45;;
68168;SDS011;54981;50.206;15.978;2023-03-01T11:18:42;28.67;;;25.40;;
68168;SDS011;54981;50.206;15.978;2023-03-01T11:21:12;32.25;;;25.13;;
68168;SDS011;54981;50.206;15.978;2023-03-01T11:23:43;33.97;;;30.73;;
68168;SDS011;54981;50.206;15.978;2023-03-01T11:26:16;28.40;;;23.38;;
68168;SDS011;54981;50.206;15.978;2023-03-01T11:28:49;34.97;;;31.65;;
68168;SDS011;54981;50.206;15.978;2023-03-01T11:31:24;31.65;;;26.02;;
68168;SDS011;54981;50.206;15.978;2023-03-01T11:33:57;28.48;;;23.63;;
68168;SDS011;54981;50.206;15.978;2023-03-01T11:36:52;35.08;;;31.67;;
68168;SDS011;54981;50.206;15.978;2023-03-01T11:39:34;30.38;;;26.10;;
68168;SDS011;54981;50.206;15.978;2023-03-01T11:42:14;30.92;;;23.95;;
68168;SDS011;54981;50.206;15.978;2023-03-01T11:44:53;35.22;;;31.83;;
68168;SDS011;54981;50.206;15.978;2023-03-01T12:09:19;37.85;;;34.25;;
68168;SDS011;54981;50.206;15.978;2023-03-01T12:20:33;34.55;;;25.40;;
68168;SDS011;54981;50.206;15.978;2023-03-01T12:29:13;25.27;;;21.20;;
68168;SDS011;54981;50.206;15.978;2023-03-01T12:35:10;31.90;;;28.73;;
68168;SDS011;54981;50.206;15.978;2023-03-01T12:40:45;26.27;;;21.98;;
68168;SDS011;54981;50.206;15.978;2023-03-01T12:43:36;30.08;;;24.45;;
68168;SDS011;54981;50.206;15.978;2023-03-01T12:54:39;28.30;;;23.13;;
68168;SDS011;54981;50.206;15.978;2023-03-01T12:57:23;27.38;;;23.77;;
68168;SDS011;54981;50.206;15.978;2023-03-01T13:00:27;34.28;;;30.77;;
68168;SDS011;54981;50.206;15.978;2023-03-01T13:11:17;37.08;;;33.58;;
68168;SDS011;54981;50.206;15.978;2023-03-01T13:13:49;37.40;;;33.63;;
68168;SDS011;54981;50.206;15.978;2023-03-01T13:16:42;36.17;;;32.58;;
68168;SDS011;54981;50.206;15.978;2023-03-01T13:21:49;35.45;;;31.95;;
68168;SDS011;54981;50.206;15.978;2023-03-01T13:24:27;35.92;;;32.42;;
68168;SDS011;54981;50.206;15.978;2023-03-01T13:27:11;35.35;;;31.77;;
68168;SDS011;54981;50.206;15.978;2023-03-01T13:35:47;37.75;;;33.78;;
68168;SDS011;54981;50.206;15.978;2023-03-01T13:41:47;35.45;;;31.85;;
68168;SDS011;54981;50.206;15.978;2023-03-01T13:49:47;36.42;;;32.72;;
68168;SDS011;54981;50.206;15.978;2023-03-01T13:52:39;34.25;;;26.60;;
68168;SDS011;54981;50.206;15.978;2023-03-01T13:57:47;42.28;;;37.50;;
68168;SDS011;54981;50.206;15.978;2023-03-01T14:05:40;41.03;;;36.92;;
68168;SDS011;54981;50.206;15.978;2023-03-01T14:08:19;44.15;;;39.53;;
68168;SDS011;54981;50.206;15.978;2023-03-01T14:22:33;45.55;;;40.72;;
68168;SDS011;54981;50.206;15.978;2023-03-01T14:27:35;46.47;;;41.67;;
68168;SDS011;54981;50.206;15.978;2023-03-01T14:30:18;45.90;;;41.08;;
68168;SDS011;54981;50.206;15.978;2023-03-01T14:32:53;46.83;;;41.97;;
68168;SDS011;54981;50.206;15.978;2023-03-01T14:35:32;46.75;;;41.75;;
68168;SDS011;54981;50.206;15.978;2023-03-01T14:38:05;44.67;;;32.97;;
68168;SDS011;54981;50.206;15.978;2023-03-01T14:40:35;46.60;;;41.80;;
68168;SDS011;54981;50.206;15.978;2023-03-01T14:43:11;48.55;;;43.55;;
68168;SDS011;54981;50.206;15.978;2023-03-01T14:45:48;46.08;;;41.35;;
68168;SDS011;54981;50.206;15.978;2023-03-01T14:48:20;44.50;;;31.77;;
68168;SDS011;54981;50.206;15.978;2023-03-01T14:50:51;48.05;;;43.35;;
68168;SDS011;54981;50.206;15.978;2023-03-01T14:53:23;43.92;;;39.53;;
68168;SDS011;54981;50.206;15.978;2023-03-01T14:55:59;40.47;;;29.55;;
68168;SDS011;54981;50.206;15.978;2023-03-01T14:58:32;43.25;;;38.75;;
68168;SDS011;54981;50.206;15.978;2023-03-01T15:01:04;40.20;;;30.33;;
68168;SDS011;54981;50.206;15.978;2023-03-01T15:03:38;44.03;;;39.55;;
68168;SDS011;54981;50.206;15.978;2023-03-01T15:06:17;44.50;;;39.97;;
68168;SDS011;54981;50.206;15.978;2023-03-01T15:08:51;40.58;;;36.42;;
68168;SDS011;54981;50.206;15.978;2023-03-01T15:11:28;41.83;;;37.33;;
68168;SDS011;54981;50.206;15.978;2023-03-01T15:14:01;44.90;;;40.15;;
68168;SDS011;54981;50.206;15.978;2023-03-01T15:16:32;47.05;;;42.13;;
68168;SDS011;54981;50.206;15.978;2023-03-01T15:19:04;49.33;;;44.33;;
68168;SDS011;54981;50.206;15.978;2023-03-01T15:21:36;48.55;;;43.63;;
68168;SDS011;54981;50.206;15.978;2023-03-01T15:26:53;50.40;;;45.20;;
68168;SDS011;54981;50.206;15.978;2023-03-01T15:29:31;47.53;;;42.53;;
68168;SDS011;54981;50.206;15.978;2023-03-01T15:34:58;44.88;;;33.53;;
68168;SDS011;54981;50.206;15.978;2023-03-01T15:40:19;47.72;;;31.98;;
68168;SDS011;54981;50.206;15.978;2023-03-01T15:43:04;49.25;;;33.05;;
68168;SDS011;54981;50.206;15.978;2023-03-01T15:45:35;50.00;;;32.53;;
68168;SDS011;54981;50.206;15.978;2023-03-01T15:48:15;53.55;;;48.22;;
68168;SDS011;54981;50.206;15.978;2023-03-01T15:50:58;56.13;;;50.03;;
68168;SDS011;54981;50.206;15.978;2023-03-01T15:53:31;50.03;;;35.25;;
68168;SDS011;54981;50.206;15.978;2023-03-01T15:56:02;57.03;;;50.40;;
68168;SDS011;54981;50.206;15.978;2023-03-01T15:58:33;49.80;;;35.60;;
68168;SDS011;54981;50.206;15.978;2023-03-01T16:01:07;48.90;;;36.40;;
68168;SDS011;54981;50.206;15.978;2023-03-01T16:03:42;54.10;;;39.00;;
68168;SDS011;54981;50.206;15.978;2023-03-01T16:06:13;58.75;;;40.45;;
68168;SDS011;54981;50.206;15.978;2023-03-01T16:08:44;63.50;;;56.88;;
68168;SDS011;54981;50.206;15.978;2023-03-01T16:11:15;57.30;;;37.63;;
68168;SDS011;54981;50.206;15.978;2023-03-01T16:13:48;59.33;;;39.75;;
68168;SDS011;54981;50.206;15.978;2023-03-01T16:16:19;65.95;;;58.33;;
68168;SDS011;54981;50.206;15.978;2023-03-01T16:18:50;55.47;;;39.70;;
68168;SDS011;54981;50.206;15.978;2023-03-01T16:21:22;63.10;;;42.08;;
68168;SDS011;54981;50.206;15.978;2023-03-01T16:23:54;69.10;;;41.97;;
68168;SDS011;54981;50.206;15.978;2023-03-01T16:26:24;64.05;;;44.25;;
68168;SDS011;54981;50.206;15.978;2023-03-01T16:28:55;57.80;;;41.65;;
68168;SDS011;54981;50.206;15.978;2023-03-01T16:31:26;70.00;;;44.42;;
68168;SDS011;54981;50.206;15.978;2023-03-01T16:33:58;64.28;;;45.53;;
68168;SDS011;54981;50.206;15.978;2023-03-01T16:36:29;58.40;;;39.97;;
68168;SDS011;54981;50.206;15.978;2023-03-01T16:39:00;60.67;;;43.42;;
68168;SDS011;54981;50.206;15.978;2023-03-01T16:41:30;70.28;;;63.00;;
68168;SDS011;54981;50.206;15.978;2023-03-01T16:44:01;61.58;;;43.78;;
68168;SDS011;54981;50.206;15.978;2023-03-01T16:46:31;65.80;;;43.38;;
68168;SDS011;54981;50.206;15.978;2023-03-01T16:49:02;68.78;;;45.45;;
68168;SDS011;54981;50.206;15.978;2023-03-01T16:51:33;70.68;;;46.28;;
68168;SDS011;54981;50.206;15.978;2023-03-01T16:54:05;67.72;;;46.63;;
68168;SDS011;54981;50.206;15.978;2023-03-01T16:56:35;69.50;;;45.72;;